sensor_id;sensor_type;location;lat;lon;timestamp;P1;durP1;ratioP1;P2;durP2;ratioP2
85405;SDS011;75817;42.662;23.270;2024-01-25T00:02:16;33.97;;;21.25;;
85405;SDS011;75817;42.662;23.270;2024-01-25T00:04:41;29.40;;;18.05;;
85405;SDS011;75817;42.662;23.270;2024-01-25T00:07:10;31.95;;;20.95;;
85405;SDS011;75817;42.662;23.270;2024-01-25T00:09:36;35.28;;;19.15;;
85405;SDS011;75817;42.662;23.270;2024-01-25T00:12:01;31.75;;;19.58;;
85405;SDS011;75817;42.662;23.270;2024-01-25T00:14:27;32.05;;;19.80;;
85405;SDS011;75817;42.662;23.270;2024-01-25T00:16:52;34.42;;;20.08;;
85405;SDS011;75817;42.662;23.270;2024-01-25T00:19:18;39.45;;;22.13;;
85405;SDS011;75817;42.662;23.270;2024-01-25T00:21:43;43.75;;;25.63;;
85405;SDS011;75817;42.662;23.270;2024-01-25T00:24:12;48.67;;;26.23;;
85405;SDS011;75817;42.662;23.270;2024-01-25T00:26:37;45.88;;;29.00;;
85405;SDS011;75817;42.662;23.270;2024-01-25T00:29:03;43.03;;;23.08;;
85405;SDS011;75817;42.662;23.270;2024-01-25T00:31:29;32.78;;;20.20;;
85405;SDS011;75817;42.662;23.270;2024-01-25T00:33:55;33.20;;;18.50;;
85405;SDS011;75817;42.662;23.270;2024-01-25T00:36:22;31.85;;;17.42;;
85405;SDS011;75817;42.662;23.270;2024-01-25T00:38:47;28.60;;;17.58;;
85405;SDS011;75817;42.662;23.270;2024-01-25T00:41:14;30.08;;;17.95;;
85405;SDS011;75817;42.662;23.270;2024-01-25T00:43:42;29.58;;;19.15;;
85405;SDS011;75817;42.662;23.270;2024-01-25T00:46:08;34.63;;;19.27;;
85405;SDS011;75817;42.662;23.270;2024-01-25T00:48:34;36.83;;;21.45;;
85405;SDS011;75817;42.662;23.270;2024-01-25T00:51:00;35.35;;;18.88;;
85405;SDS011;75817;42.662;23.270;2024-01-25T00:53:25;30.58;;;15.95;;
85405;SDS011;75817;42.662;23.270;2024-01-25T00:55:51;24.83;;;16.50;;
85405;SDS011;75817;42.662;23.270;2024-01-25T00:58:17;29.58;;;16.17;;
85405;SDS011;75817;42.662;23.270;2024-01-25T01:00:42;18.67;;;11.88;;
85405;SDS011;75817;42.662;23.270;2024-01-25T01:03:08;23.67;;;15.15;;
85405;SDS011;75817;42.662;23.270;2024-01-25T01:05:34;23.63;;;14.27;;
85405;SDS011;75817;42.662;23.270;2024-01-25T01:08:00;22.00;;;12.93;;
85405;SDS011;75817;42.662;23.270;2024-01-25T01:10:25;19.52;;;12.48;;
85405;SDS011;75817;42.662;23.270;2024-01-25T01:12:51;24.85;;;13.55;;
85405;SDS011;75817;42.662;23.270;2024-01-25T01:15:18;19.05;;;12.35;;
85405;SDS011;75817;42.662;23.270;2024-01-25T01:17:43;21.17;;;15.18;;
85405;SDS011;75817;42.662;23.270;2024-01-25T01:20:09;18.45;;;12.68;;
85405;SDS011;75817;42.662;23.270;2024-01-25T01:22:35;19.50;;;10.88;;
85405;SDS011;75817;42.662;23.270;2024-01-25T01:25:00;23.75;;;13.25;;
85405;SDS011;75817;42.662;23.270;2024-01-25T01:27:25;21.35;;;12.55;;
85405;SDS011;75817;42.662;23.270;2024-01-25T01:29:51;19.83;;;12.18;;
85405;SDS011;75817;42.662;23.270;2024-01-25T01:32:16;16.65;;;11.63;;
85405;SDS011;75817;42.662;23.270;2024-01-25T01:34:41;18.38;;;12.52;;
85405;SDS011;75817;42.662;23.270;2024-01-25T01:37:07;20.42;;;12.10;;
85405;SDS011;75817;42.662;23.270;2024-01-25T01:39:32;21.10;;;12.23;;
85405;SDS011;75817;42.662;23.270;2024-01-25T01:41:58;12.32;;;7.70;;
85405;SDS011;75817;42.662;23.270;2024-01-25T01:44:23;5.07;;;2.67;;
85405;SDS011;75817;42.662;23.270;2024-01-25T01:46:48;5.63;;;2.60;;
85405;SDS011;75817;42.662;23.270;2024-01-25T01:49:14;1.95;;;1.42;;
85405;SDS011;75817;42.662;23.270;2024-01-25T01:51:40;2.33;;;1.55;;
85405;SDS011;75817;42.662;23.270;2024-01-25T01:54:09;4.47;;;1.90;;
85405;SDS011;75817;42.662;23.270;2024-01-25T01:56:35;2.95;;;1.73;;
85405;SDS011;75817;42.662;23.270;2024-01-25T01:59:04;2.40;;;1.40;;
85405;SDS011;75817;42.662;23.270;2024-01-25T02:01:30;1.48;;;1.20;;
85405;SDS011;75817;42.662;23.270;2024-01-25T02:03:56;2.55;;;1.67;;
85405;SDS011;75817;42.662;23.270;2024-01-25T02:06:22;2.30;;;1.23;;
85405;SDS011;75817;42.662;23.270;2024-01-25T02:08:48;2.35;;;1.70;;
85405;SDS011;75817;42.662;23.270;2024-01-25T02:11:15;2.45;;;1.20;;
85405;SDS011;75817;42.662;23.270;2024-01-25T02:13:41;1.52;;;1.33;;
85405;SDS011;75817;42.662;23.270;2024-01-25T02:16:07;2.65;;;1.80;;
85405;SDS011;75817;42.662;23.270;2024-01-25T02:18:33;1.98;;;1.10;;
85405;SDS011;75817;42.662;23.270;2024-01-25T02:20:58;1.30;;;1.17;;
85405;SDS011;75817;42.662;23.270;2024-01-25T02:23:24;1.60;;;1.30;;
85405;SDS011;75817;42.662;23.270;2024-01-25T02:25:49;1.92;;;1.23;;
85405;SDS011;75817;42.662;23.270;2024-01-25T02:28:15;2.70;;;1.75;;
85405;SDS011;75817;42.662;23.270;2024-01-25T02:30:40;2.17;;;1.35;;
85405;SDS011;75817;42.662;23.270;2024-01-25T02:33:06;1.65;;;1.20;;
85405;SDS011;75817;42.662;23.270;2024-01-25T02:35:31;1.60;;;1.00;;
85405;SDS011;75817;42.662;23.270;2024-01-25T02:37:56;1.30;;;1.20;;
85405;SDS011;75817;42.662;23.270;2024-01-25T02:40:22;3.60;;;1.60;;
85405;SDS011;75817;42.662;23.270;2024-01-25T02:42:47;2.15;;;1.38;;
85405;SDS011;75817;42.662;23.270;2024-01-25T02:45:12;3.35;;;1.45;;
85405;SDS011;75817;42.662;23.270;2024-01-25T02:47:38;2.33;;;1.60;;
85405;SDS011;75817;42.662;23.270;2024-01-25T02:50:03;2.55;;;1.20;;
85405;SDS011;75817;42.662;23.270;2024-01-25T02:52:29;2.08;;;1.20;;
85405;SDS011;75817;42.662;23.270;2024-01-25T02:54:54;2.40;;;1.13;;
85405;SDS011;75817;42.662;23.270;2024-01-25T02:57:20;1.52;;;1.15;;
85405;SDS011;75817;42.662;23.270;2024-01-25T02:59:45;1.80;;;1.13;;
85405;SDS011;75817;42.662;23.270;2024-01-25T03:02:11;2.78;;;1.48;;
85405;SDS011;75817;42.662;23.270;2024-01-25T03:04:37;2.10;;;1.30;;
85405;SDS011;75817;42.662;23.270;2024-01-25T03:07:02;1.45;;;1.10;;
85405;SDS011;75817;42.662;23.270;2024-01-25T03:09:27;2.47;;;1.50;;
85405;SDS011;75817;42.662;23.270;2024-01-25T03:11:53;3.30;;;1.20;;
85405;SDS011;75817;42.662;23.270;2024-01-25T03:14:18;2.85;;;1.50;;
85405;SDS011;75817;42.662;23.270;2024-01-25T03:16:44;2.15;;;1.27;;
85405;SDS011;75817;42.662;23.270;2024-01-25T03:19:10;2.92;;;1.67;;
85405;SDS011;75817;42.662;23.270;2024-01-25T03:21:35;3.13;;;1.30;;
85405;SDS011;75817;42.662;23.270;2024-01-25T03:24:01;3.10;;;1.55;;
85405;SDS011;75817;42.662;23.270;2024-01-25T03:26:26;4.05;;;1.73;;
85405;SDS011;75817;42.662;23.270;2024-01-25T03:28:52;2.00;;;1.20;;
85405;SDS011;75817;42.662;23.270;2024-01-25T03:31:18;2.00;;;1.50;;
85405;SDS011;75817;42.662;23.270;2024-01-25T03:33:43;1.65;;;1.20;;
85405;SDS011;75817;42.662;23.270;2024-01-25T03:36:08;1.50;;;1.02;;
85405;SDS011;75817;42.662;23.270;2024-01-25T03:38:34;2.97;;;1.42;;
85405;SDS011;75817;42.662;23.270;2024-01-25T03:40:59;4.10;;;1.63;;
85405;SDS011;75817;42.662;23.270;2024-01-25T03:43:25;2.70;;;1.40;;
85405;SDS011;75817;42.662;23.270;2024-01-25T03:45:51;5.65;;;2.03;;
85405;SDS011;75817;42.662;23.270;2024-01-25T03:48:16;1.55;;;1.23;;
85405;SDS011;75817;42.662;23.270;2024-01-25T03:50:41;1.27;;;0.70;;
85405;SDS011;75817;42.662;23.270;2024-01-25T03:53:07;2.80;;;1.27;;
85405;SDS011;75817;42.662;23.270;2024-01-25T03:55:32;2.17;;;1.08;;
85405;SDS011;75817;42.662;23.270;2024-01-25T03:57:58;1.38;;;1.10;;
85405;SDS011;75817;42.662;23.270;2024-01-25T04:00:23;1.73;;;1.33;;
85405;SDS011;75817;42.662;23.270;2024-01-25T04:02:49;2.85;;;1.35;;
85405;SDS011;75817;42.662;23.270;2024-01-25T04:05:15;1.85;;;1.10;;
85405;SDS011;75817;42.662;23.270;2024-01-25T04:07:40;2.40;;;1.40;;
85405;SDS011;75817;42.662;23.270;2024-01-25T04:10:06;3.00;;;1.60;;
85405;SDS011;75817;42.662;23.270;2024-01-25T04:12:31;2.45;;;1.45;;
85405;SDS011;75817;42.662;23.270;2024-01-25T04:14:58;2.13;;;1.80;;
85405;SDS011;75817;42.662;23.270;2024-01-25T04:17:23;2.53;;;1.00;;
85405;SDS011;75817;42.662;23.270;2024-01-25T04:19:48;2.30;;;1.10;;
85405;SDS011;75817;42.662;23.270;2024-01-25T04:22:14;3.03;;;1.38;;
85405;SDS011;75817;42.662;23.270;2024-01-25T04:24:39;2.35;;;1.50;;
85405;SDS011;75817;42.662;23.270;2024-01-25T04:27:05;3.33;;;1.45;;
85405;SDS011;75817;42.662;23.270;2024-01-25T04:29:31;1.98;;;1.48;;
85405;SDS011;75817;42.662;23.270;2024-01-25T04:31:56;1.60;;;1.20;;
85405;SDS011;75817;42.662;23.270;2024-01-25T04:34:21;3.13;;;1.45;;
85405;SDS011;75817;42.662;23.270;2024-01-25T04:36:47;3.00;;;1.55;;
85405;SDS011;75817;42.662;23.270;2024-01-25T04:39:12;3.45;;;1.50;;
85405;SDS011;75817;42.662;23.270;2024-01-25T04:41:37;2.88;;;1.20;;
85405;SDS011;75817;42.662;23.270;2024-01-25T04:44:03;2.13;;;1.30;;
85405;SDS011;75817;42.662;23.270;2024-01-25T04:46:29;2.40;;;1.20;;
85405;SDS011;75817;42.662;23.270;2024-01-25T04:49:00;3.78;;;1.88;;
85405;SDS011;75817;42.662;23.270;2024-01-25T04:51:25;2.33;;;1.60;;
85405;SDS011;75817;42.662;23.270;2024-01-25T04:53:50;2.45;;;1.20;;
85405;SDS011;75817;42.662;23.270;2024-01-25T04:56:16;2.15;;;1.10;;
85405;SDS011;75817;42.662;23.270;2024-01-25T04:58:41;3.30;;;1.63;;
85405;SDS011;75817;42.662;23.270;2024-01-25T05:01:07;3.15;;;1.77;;
85405;SDS011;75817;42.662;23.270;2024-01-25T05:03:32;3.40;;;1.25;;
85405;SDS011;75817;42.662;23.270;2024-01-25T05:05:58;3.50;;;1.60;;
85405;SDS011;75817;42.662;23.270;2024-01-25T05:08:23;2.53;;;1.40;;
85405;SDS011;75817;42.662;23.270;2024-01-25T05:10:49;3.20;;;1.40;;
85405;SDS011;75817;42.662;23.270;2024-01-25T05:13:14;1.55;;;1.00;;
85405;SDS011;75817;42.662;23.270;2024-01-25T05:15:39;3.97;;;1.88;;
85405;SDS011;75817;42.662;23.270;2024-01-25T05:18:05;3.80;;;1.40;;
85405;SDS011;75817;42.662;23.270;2024-01-25T05:20:31;2.25;;;1.60;;
85405;SDS011;75817;42.662;23.270;2024-01-25T05:22:58;2.42;;;1.55;;
85405;SDS011;75817;42.662;23.270;2024-01-25T05:25:23;4.05;;;1.50;;
85405;SDS011;75817;42.662;23.270;2024-01-25T05:27:51;3.35;;;1.60;;
85405;SDS011;75817;42.662;23.270;2024-01-25T05:30:16;3.88;;;1.55;;
85405;SDS011;75817;42.662;23.270;2024-01-25T05:32:42;3.42;;;1.73;;
85405;SDS011;75817;42.662;23.270;2024-01-25T05:35:08;5.28;;;1.58;;
85405;SDS011;75817;42.662;23.270;2024-01-25T05:37:33;3.13;;;1.70;;
85405;SDS011;75817;42.662;23.270;2024-01-25T05:39:59;3.28;;;1.60;;
85405;SDS011;75817;42.662;23.270;2024-01-25T05:42:24;2.75;;;1.10;;
85405;SDS011;75817;42.662;23.270;2024-01-25T05:44:49;6.88;;;2.13;;
85405;SDS011;75817;42.662;23.270;2024-01-25T05:47:15;3.25;;;1.73;;
85405;SDS011;75817;42.662;23.270;2024-01-25T05:49:41;3.08;;;1.48;;
85405;SDS011;75817;42.662;23.270;2024-01-25T05:52:06;2.80;;;1.15;;
85405;SDS011;75817;42.662;23.270;2024-01-25T05:54:32;3.70;;;2.05;;
85405;SDS011;75817;42.662;23.270;2024-01-25T05:56:57;3.30;;;1.80;;
85405;SDS011;75817;42.662;23.270;2024-01-25T05:59:22;3.15;;;1.55;;
85405;SDS011;75817;42.662;23.270;2024-01-25T06:01:48;2.30;;;1.40;;
85405;SDS011;75817;42.662;23.270;2024-01-25T06:04:13;4.07;;;1.98;;
85405;SDS011;75817;42.662;23.270;2024-01-25T06:06:38;3.15;;;1.58;;
85405;SDS011;75817;42.662;23.270;2024-01-25T06:09:04;3.22;;;1.60;;
85405;SDS011;75817;42.662;23.270;2024-01-25T06:11:30;3.50;;;1.83;;
85405;SDS011;75817;42.662;23.270;2024-01-25T06:13:56;4.55;;;1.65;;
85405;SDS011;75817;42.662;23.270;2024-01-25T06:16:22;4.53;;;2.47;;
85405;SDS011;75817;42.662;23.270;2024-01-25T06:18:47;4.18;;;2.03;;
85405;SDS011;75817;42.662;23.270;2024-01-25T06:21:12;3.30;;;2.00;;
85405;SDS011;75817;42.662;23.270;2024-01-25T06:23:38;6.10;;;2.40;;
85405;SDS011;75817;42.662;23.270;2024-01-25T06:26:03;6.68;;;2.47;;
85405;SDS011;75817;42.662;23.270;2024-01-25T06:28:29;6.97;;;2.83;;
85405;SDS011;75817;42.662;23.270;2024-01-25T06:30:54;6.60;;;3.10;;
85405;SDS011;75817;42.662;23.270;2024-01-25T06:33:20;7.95;;;3.22;;
85405;SDS011;75817;42.662;23.270;2024-01-25T06:35:45;7.10;;;2.20;;
85405;SDS011;75817;42.662;23.270;2024-01-25T06:38:11;4.90;;;2.55;;
85405;SDS011;75817;42.662;23.270;2024-01-25T06:40:37;4.35;;;2.20;;
85405;SDS011;75817;42.662;23.270;2024-01-25T06:43:03;3.90;;;2.17;;
85405;SDS011;75817;42.662;23.270;2024-01-25T06:45:29;5.75;;;2.28;;
85405;SDS011;75817;42.662;23.270;2024-01-25T06:47:54;5.65;;;3.05;;
85405;SDS011;75817;42.662;23.270;2024-01-25T06:50:19;3.58;;;2.25;;
85405;SDS011;75817;42.662;23.270;2024-01-25T06:52:45;4.43;;;2.08;;
85405;SDS011;75817;42.662;23.270;2024-01-25T06:55:10;6.53;;;2.55;;
85405;SDS011;75817;42.662;23.270;2024-01-25T06:57:38;7.57;;;2.17;;
85405;SDS011;75817;42.662;23.270;2024-01-25T07:00:04;6.80;;;3.55;;
85405;SDS011;75817;42.662;23.270;2024-01-25T07:02:30;6.75;;;2.78;;
85405;SDS011;75817;42.662;23.270;2024-01-25T07:04:55;4.97;;;2.60;;
85405;SDS011;75817;42.662;23.270;2024-01-25T07:07:21;6.75;;;2.72;;
85405;SDS011;75817;42.662;23.270;2024-01-25T07:09:46;6.78;;;3.58;;
85405;SDS011;75817;42.662;23.270;2024-01-25T07:12:12;4.10;;;2.90;;
85405;SDS011;75817;42.662;23.270;2024-01-25T07:14:37;5.53;;;2.92;;
85405;SDS011;75817;42.662;23.270;2024-01-25T07:17:02;6.70;;;2.55;;
85405;SDS011;75817;42.662;23.270;2024-01-25T07:19:28;4.45;;;2.55;;
85405;SDS011;75817;42.662;23.270;2024-01-25T07:21:54;4.38;;;1.77;;
85405;SDS011;75817;42.662;23.270;2024-01-25T07:24:19;6.68;;;2.53;;
85405;SDS011;75817;42.662;23.270;2024-01-25T07:26:44;4.40;;;2.42;;
85405;SDS011;75817;42.662;23.270;2024-01-25T07:29:10;6.15;;;3.33;;
85405;SDS011;75817;42.662;23.270;2024-01-25T07:31:35;6.60;;;3.28;;
85405;SDS011;75817;42.662;23.270;2024-01-25T07:34:01;2.95;;;2.20;;
85405;SDS011;75817;42.662;23.270;2024-01-25T07:36:26;5.07;;;2.55;;
85405;SDS011;75817;42.662;23.270;2024-01-25T07:38:51;5.50;;;2.58;;
85405;SDS011;75817;42.662;23.270;2024-01-25T07:41:17;5.50;;;3.58;;
85405;SDS011;75817;42.662;23.270;2024-01-25T07:43:42;4.65;;;2.78;;
85405;SDS011;75817;42.662;23.270;2024-01-25T07:46:08;7.88;;;2.78;;
85405;SDS011;75817;42.662;23.270;2024-01-25T07:48:33;7.93;;;2.75;;
85405;SDS011;75817;42.662;23.270;2024-01-25T07:50:59;8.60;;;3.30;;
85405;SDS011;75817;42.662;23.270;2024-01-25T07:53:24;9.77;;;3.15;;
85405;SDS011;75817;42.662;23.270;2024-01-25T07:55:49;5.32;;;2.92;;
85405;SDS011;75817;42.662;23.270;2024-01-25T07:58:15;4.32;;;2.60;;
85405;SDS011;75817;42.662;23.270;2024-01-25T08:00:41;7.18;;;2.78;;
85405;SDS011;75817;42.662;23.270;2024-01-25T08:03:07;7.47;;;2.92;;
85405;SDS011;75817;42.662;23.270;2024-01-25T08:05:32;4.80;;;2.20;;
85405;SDS011;75817;42.662;23.270;2024-01-25T08:07:58;7.15;;;2.72;;
85405;SDS011;75817;42.662;23.270;2024-01-25T08:10:23;5.45;;;2.60;;
85405;SDS011;75817;42.662;23.270;2024-01-25T08:12:49;5.88;;;1.92;;
85405;SDS011;75817;42.662;23.270;2024-01-25T08:15:14;6.78;;;2.85;;
85405;SDS011;75817;42.662;23.270;2024-01-25T08:17:39;8.25;;;2.53;;
85405;SDS011;75817;42.662;23.270;2024-01-25T08:20:05;5.18;;;2.28;;
85405;SDS011;75817;42.662;23.270;2024-01-25T08:22:31;6.30;;;2.90;;
85405;SDS011;75817;42.662;23.270;2024-01-25T08:24:57;6.82;;;2.88;;
85405;SDS011;75817;42.662;23.270;2024-01-25T08:27:23;4.57;;;2.25;;
85405;SDS011;75817;42.662;23.270;2024-01-25T08:29:49;5.00;;;2.47;;
85405;SDS011;75817;42.662;23.270;2024-01-25T08:32:14;7.45;;;2.22;;
85405;SDS011;75817;42.662;23.270;2024-01-25T08:34:39;3.95;;;2.10;;
85405;SDS011;75817;42.662;23.270;2024-01-25T08:37:05;3.72;;;2.17;;
85405;SDS011;75817;42.662;23.270;2024-01-25T08:39:30;6.60;;;2.35;;
85405;SDS011;75817;42.662;23.270;2024-01-25T08:41:56;6.50;;;2.67;;
85405;SDS011;75817;42.662;23.270;2024-01-25T08:44:25;7.20;;;2.55;;
85405;SDS011;75817;42.662;23.270;2024-01-25T08:46:50;7.35;;;2.67;;
85405;SDS011;75817;42.662;23.270;2024-01-25T08:49:16;7.45;;;2.70;;
85405;SDS011;75817;42.662;23.270;2024-01-25T08:51:41;7.80;;;2.85;;
85405;SDS011;75817;42.662;23.270;2024-01-25T08:54:07;6.15;;;2.30;;
85405;SDS011;75817;42.662;23.270;2024-01-25T08:56:33;4.60;;;2.17;;
85405;SDS011;75817;42.662;23.270;2024-01-25T08:58:59;7.18;;;2.80;;
85405;SDS011;75817;42.662;23.270;2024-01-25T09:01:25;7.20;;;2.38;;
85405;SDS011;75817;42.662;23.270;2024-01-25T09:03:50;4.85;;;2.20;;
85405;SDS011;75817;42.662;23.270;2024-01-25T09:06:16;8.27;;;2.97;;
85405;SDS011;75817;42.662;23.270;2024-01-25T09:08:41;4.43;;;1.80;;
85405;SDS011;75817;42.662;23.270;2024-01-25T09:11:07;4.43;;;2.33;;
85405;SDS011;75817;42.662;23.270;2024-01-25T09:13:32;5.63;;;3.00;;
85405;SDS011;75817;42.662;23.270;2024-01-25T09:15:57;5.50;;;2.40;;
85405;SDS011;75817;42.662;23.270;2024-01-25T09:18:23;7.32;;;2.88;;
85405;SDS011;75817;42.662;23.270;2024-01-25T09:20:48;6.60;;;2.72;;
85405;SDS011;75817;42.662;23.270;2024-01-25T09:23:14;5.88;;;2.33;;
85405;SDS011;75817;42.662;23.270;2024-01-25T09:25:45;5.22;;;2.30;;
85405;SDS011;75817;42.662;23.270;2024-01-25T09:28:11;5.43;;;2.90;;
85405;SDS011;75817;42.662;23.270;2024-01-25T09:30:37;5.30;;;2.65;;
85405;SDS011;75817;42.662;23.270;2024-01-25T09:33:06;6.95;;;2.50;;
85405;SDS011;75817;42.662;23.270;2024-01-25T09:35:32;6.93;;;2.75;;
85405;SDS011;75817;42.662;23.270;2024-01-25T09:37:57;6.18;;;3.13;;
85405;SDS011;75817;42.662;23.270;2024-01-25T09:40:22;6.32;;;2.90;;
85405;SDS011;75817;42.662;23.270;2024-01-25T09:42:48;6.55;;;3.05;;
85405;SDS011;75817;42.662;23.270;2024-01-25T09:45:17;6.78;;;3.47;;
85405;SDS011;75817;42.662;23.270;2024-01-25T09:47:44;5.68;;;2.70;;
85405;SDS011;75817;42.662;23.270;2024-01-25T09:50:13;6.80;;;2.75;;
85405;SDS011;75817;42.662;23.270;2024-01-25T09:52:39;8.60;;;3.50;;
85405;SDS011;75817;42.662;23.270;2024-01-25T09:55:05;6.20;;;3.13;;
85405;SDS011;75817;42.662;23.270;2024-01-25T09:57:32;4.95;;;3.30;;
85405;SDS011;75817;42.662;23.270;2024-01-25T10:00:00;9.63;;;3.83;;
85405;SDS011;75817;42.662;23.270;2024-01-25T10:02:26;7.78;;;4.80;;
85405;SDS011;75817;42.662;23.270;2024-01-25T10:04:51;10.75;;;3.35;;
85405;SDS011;75817;42.662;23.270;2024-01-25T10:07:34;6.25;;;3.25;;
85405;SDS011;75817;42.662;23.270;2024-01-25T10:10:00;4.53;;;2.85;;
85405;SDS011;75817;42.662;23.270;2024-01-25T10:12:26;4.80;;;2.38;;
85405;SDS011;75817;42.662;23.270;2024-01-25T10:14:51;7.80;;;2.92;;
85405;SDS011;75817;42.662;23.270;2024-01-25T10:17:17;6.35;;;3.15;;
85405;SDS011;75817;42.662;23.270;2024-01-25T10:19:43;4.63;;;2.60;;
85405;SDS011;75817;42.662;23.270;2024-01-25T10:22:09;5.68;;;2.90;;
85405;SDS011;75817;42.662;23.270;2024-01-25T10:24:37;7.10;;;4.15;;
85405;SDS011;75817;42.662;23.270;2024-01-25T10:27:03;7.50;;;3.58;;
85405;SDS011;75817;42.662;23.270;2024-01-25T10:29:29;8.32;;;3.10;;
85405;SDS011;75817;42.662;23.270;2024-01-25T10:31:54;8.65;;;3.83;;
85405;SDS011;75817;42.662;23.270;2024-01-25T10:34:20;5.55;;;2.75;;
85405;SDS011;75817;42.662;23.270;2024-01-25T10:36:45;8.60;;;3.97;;
85405;SDS011;75817;42.662;23.270;2024-01-25T10:39:11;7.45;;;3.30;;
85405;SDS011;75817;42.662;23.270;2024-01-25T10:41:37;6.05;;;3.28;;
85405;SDS011;75817;42.662;23.270;2024-01-25T10:44:03;9.13;;;3.25;;
85405;SDS011;75817;42.662;23.270;2024-01-25T10:46:31;6.22;;;2.85;;
85405;SDS011;75817;42.662;23.270;2024-01-25T10:48:57;7.70;;;3.67;;
85405;SDS011;75817;42.662;23.270;2024-01-25T10:51:24;7.35;;;4.07;;
85405;SDS011;75817;42.662;23.270;2024-01-25T10:53:50;4.07;;;2.05;;
85405;SDS011;75817;42.662;23.270;2024-01-25T10:56:16;5.55;;;2.70;;
85405;SDS011;75817;42.662;23.270;2024-01-25T10:58:41;3.50;;;1.60;;
85405;SDS011;75817;42.662;23.270;2024-01-25T11:01:10;5.88;;;2.20;;
85405;SDS011;75817;42.662;23.270;2024-01-25T11:03:36;7.40;;;3.22;;
85405;SDS011;75817;42.662;23.270;2024-01-25T11:06:08;9.55;;;3.85;;
85405;SDS011;75817;42.662;23.270;2024-01-25T11:08:37;4.18;;;2.70;;
85405;SDS011;75817;42.662;23.270;2024-01-25T11:11:07;5.60;;;2.67;;
85405;SDS011;75817;42.662;23.270;2024-01-25T11:13:34;10.10;;;3.58;;
85405;SDS011;75817;42.662;23.270;2024-01-25T11:16:10;7.95;;;3.80;;
85405;SDS011;75817;42.662;23.270;2024-01-25T11:18:55;7.40;;;3.55;;
85405;SDS011;75817;42.662;23.270;2024-01-25T11:21:40;7.60;;;2.75;;
85405;SDS011;75817;42.662;23.270;2024-01-25T11:24:11;7.38;;;2.90;;
85405;SDS011;75817;42.662;23.270;2024-01-25T11:26:45;10.98;;;3.70;;
85405;SDS011;75817;42.662;23.270;2024-01-25T11:29:17;6.35;;;3.35;;
85405;SDS011;75817;42.662;23.270;2024-01-25T11:31:45;4.43;;;2.58;;
85405;SDS011;75817;42.662;23.270;2024-01-25T11:34:12;7.40;;;3.42;;
85405;SDS011;75817;42.662;23.270;2024-01-25T11:36:39;11.10;;;4.97;;
85405;SDS011;75817;42.662;23.270;2024-01-25T11:39:04;7.80;;;3.10;;
85405;SDS011;75817;42.662;23.270;2024-01-25T11:41:31;9.52;;;4.30;;
85405;SDS011;75817;42.662;23.270;2024-01-25T11:43:57;9.38;;;3.00;;
85405;SDS011;75817;42.662;23.270;2024-01-25T11:46:23;6.88;;;3.50;;
85405;SDS011;75817;42.662;23.270;2024-01-25T11:48:48;7.03;;;2.67;;
85405;SDS011;75817;42.662;23.270;2024-01-25T11:51:14;7.70;;;3.25;;
85405;SDS011;75817;42.662;23.270;2024-01-25T11:53:40;6.68;;;2.85;;
85405;SDS011;75817;42.662;23.270;2024-01-25T11:56:06;10.40;;;3.50;;
85405;SDS011;75817;42.662;23.270;2024-01-25T11:58:33;5.72;;;3.08;;
85405;SDS011;75817;42.662;23.270;2024-01-25T12:00:59;5.82;;;3.00;;
85405;SDS011;75817;42.662;23.270;2024-01-25T12:03:25;9.30;;;4.03;;
85405;SDS011;75817;42.662;23.270;2024-01-25T12:05:51;6.72;;;3.50;;
85405;SDS011;75817;42.662;23.270;2024-01-25T12:08:16;4.38;;;2.80;;
85405;SDS011;75817;42.662;23.270;2024-01-25T12:10:42;9.48;;;3.53;;
85405;SDS011;75817;42.662;23.270;2024-01-25T12:13:07;7.22;;;2.42;;
85405;SDS011;75817;42.662;23.270;2024-01-25T12:15:34;9.27;;;2.58;;
85405;SDS011;75817;42.662;23.270;2024-01-25T12:18:00;7.22;;;2.45;;
85405;SDS011;75817;42.662;23.270;2024-01-25T12:20:26;5.40;;;2.75;;
85405;SDS011;75817;42.662;23.270;2024-01-25T12:22:53;4.80;;;2.72;;
85405;SDS011;75817;42.662;23.270;2024-01-25T12:25:18;8.05;;;2.72;;
85405;SDS011;75817;42.662;23.270;2024-01-25T12:27:43;8.35;;;3.03;;
85405;SDS011;75817;42.662;23.270;2024-01-25T12:30:12;10.93;;;2.92;;
85405;SDS011;75817;42.662;23.270;2024-01-25T12:32:37;9.23;;;3.85;;
85405;SDS011;75817;42.662;23.270;2024-01-25T12:35:03;5.85;;;2.85;;
85405;SDS011;75817;42.662;23.270;2024-01-25T12:37:29;7.68;;;2.97;;
85405;SDS011;75817;42.662;23.270;2024-01-25T12:39:55;8.50;;;3.25;;
85405;SDS011;75817;42.662;23.270;2024-01-25T12:42:21;10.23;;;3.13;;
85405;SDS011;75817;42.662;23.270;2024-01-25T12:44:48;7.20;;;3.00;;
85405;SDS011;75817;42.662;23.270;2024-01-25T12:47:16;6.85;;;2.95;;
85405;SDS011;75817;42.662;23.270;2024-01-25T12:49:42;6.88;;;3.15;;
85405;SDS011;75817;42.662;23.270;2024-01-25T12:52:11;4.53;;;2.50;;
85405;SDS011;75817;42.662;23.270;2024-01-25T12:54:38;8.02;;;2.70;;
85405;SDS011;75817;42.662;23.270;2024-01-25T12:57:04;7.00;;;3.53;;
85405;SDS011;75817;42.662;23.270;2024-01-25T12:59:31;5.53;;;2.25;;
85405;SDS011;75817;42.662;23.270;2024-01-25T13:01:57;8.60;;;2.85;;
85405;SDS011;75817;42.662;23.270;2024-01-25T13:04:23;4.38;;;2.20;;
85405;SDS011;75817;42.662;23.270;2024-01-25T13:06:49;4.88;;;2.10;;
85405;SDS011;75817;42.662;23.270;2024-01-25T13:09:17;8.13;;;3.13;;
85405;SDS011;75817;42.662;23.270;2024-01-25T13:11:42;6.10;;;2.40;;
85405;SDS011;75817;42.662;23.270;2024-01-25T13:14:07;12.18;;;3.17;;
85405;SDS011;75817;42.662;23.270;2024-01-25T13:16:33;5.72;;;2.00;;
85405;SDS011;75817;42.662;23.270;2024-01-25T13:18:58;6.35;;;2.67;;
85405;SDS011;75817;42.662;23.270;2024-01-25T13:21:24;10.00;;;2.90;;
85405;SDS011;75817;42.662;23.270;2024-01-25T13:23:49;21.77;;;9.77;;
85405;SDS011;75817;42.662;23.270;2024-01-25T13:26:14;7.55;;;4.75;;
85405;SDS011;75817;42.662;23.270;2024-01-25T13:28:40;11.05;;;3.55;;
85405;SDS011;75817;42.662;23.270;2024-01-25T13:31:05;7.13;;;4.05;;
85405;SDS011;75817;42.662;23.270;2024-01-25T13:33:30;7.00;;;3.15;;
85405;SDS011;75817;42.662;23.270;2024-01-25T13:35:56;5.68;;;2.28;;
85405;SDS011;75817;42.662;23.270;2024-01-25T13:38:21;8.32;;;3.00;;
85405;SDS011;75817;42.662;23.270;2024-01-25T13:40:47;8.18;;;2.95;;
85405;SDS011;75817;42.662;23.270;2024-01-25T13:43:12;4.45;;;3.05;;
85405;SDS011;75817;42.662;23.270;2024-01-25T13:45:38;6.40;;;3.55;;
85405;SDS011;75817;42.662;23.270;2024-01-25T13:48:03;5.25;;;2.75;;
85405;SDS011;75817;42.662;23.270;2024-01-25T13:50:29;8.88;;;3.55;;
85405;SDS011;75817;42.662;23.270;2024-01-25T13:52:54;7.93;;;3.22;;
85405;SDS011;75817;42.662;23.270;2024-01-25T13:55:20;6.65;;;2.72;;
85405;SDS011;75817;42.662;23.270;2024-01-25T13:57:45;7.45;;;2.95;;
85405;SDS011;75817;42.662;23.270;2024-01-25T14:00:11;7.57;;;2.97;;
85405;SDS011;75817;42.662;23.270;2024-01-25T14:02:37;8.60;;;3.22;;
85405;SDS011;75817;42.662;23.270;2024-01-25T14:05:04;6.72;;;3.30;;
85405;SDS011;75817;42.662;23.270;2024-01-25T14:07:31;6.53;;;3.45;;
85405;SDS011;75817;42.662;23.270;2024-01-25T14:09:57;9.02;;;2.80;;
85405;SDS011;75817;42.662;23.270;2024-01-25T14:12:22;9.80;;;3.30;;
85405;SDS011;75817;42.662;23.270;2024-01-25T14:14:47;7.50;;;2.83;;
85405;SDS011;75817;42.662;23.270;2024-01-25T14:17:13;6.03;;;2.92;;
85405;SDS011;75817;42.662;23.270;2024-01-25T14:19:38;6.32;;;2.97;;
85405;SDS011;75817;42.662;23.270;2024-01-25T14:22:04;8.27;;;3.45;;
85405;SDS011;75817;42.662;23.270;2024-01-25T14:24:29;7.18;;;2.40;;